Time;durP1;ratioP1;P1;durP2;ratioP2;P2;SDS_P1;SDS_P2;PMS_P1;PMS_P2;Temp;Humidity;BMP_temperature;BMP_pressure;BME280_temperature;BME280_humidity;BME280_pressure;Samples;Min_cycle;Max_cycle;Signal;HPM_P1;HPM_P2
2022/03/27 00:00:26;;;;;;;0.50;0.50;;;;;;;8.82;46.84;97974.06;29395;295;63004;-58
2022/03/27 00:00:58;;;;;;;0.50;0.50;;;;;;;8.82;46.95;97965.94;29395;330;63009;-58
2022/03/27 00:01:29;;;;;;;0.50;0.50;;;;;;;8.81;46.95;97965.13;29395;218;63004;-58
2022/03/27 00:02:02;;;;;;;0.50;0.50;;;;;;;8.82;47.14;97965.94;29395;252;63013;-58
2022/03/27 00:02:34;;;;;;;0.50;0.50;;;;;;;8.82;46.92;97971.38;29395;223;63001;-58
2022/03/27 00:03:06;;;;;;;0.50;0.50;;;;;;;8.80;47.12;97974.31;29394;214;64009;-58
2022/03/27 00:03:38;;;;;;;0.50;0.50;;;;;;;8.78;47.30;97975.66;29395;218;63005;-58
2022/03/27 00:04:09;;;;;;;0.50;0.50;;;;;;;8.77;47.27;97974.00;29395;197;63009;-59
2022/03/27 00:04:41;;;;;;;0.50;0.50;;;;;;;8.75;47.45;97966.16;29394;216;64005;-58
2022/03/27 00:05:13;;;;;;;0.50;0.50;;;;;;;8.75;47.64;97976.97;29395;219;63009;-58
2022/03/27 00:05:45;;;;;;;0.60;0.60;;;;;;;8.73;47.69;97973.69;29395;223;63005;-59
2022/03/27 00:06:16;;;;;;;0.55;0.55;;;;;;;8.73;47.68;97977.22;29395;228;63009;-58
2022/03/27 00:06:48;;;;;;;0.50;0.50;;;;;;;8.71;47.65;97975.84;29394;199;64004;-59
2022/03/27 00:07:19;;;;;;;0.60;0.60;;;;;;;8.70;47.76;97969.62;29394;208;64009;-58
2022/03/27 00:07:50;;;;;;;0.50;0.50;;;;;;;8.68;47.52;97977.16;29395;218;63004;-57
2022/03/27 00:08:22;;;;;;;0.50;0.50;;;;;;;8.67;47.67;97975.53;29395;205;63004;-58
2022/03/27 00:08:53;;;;;;;0.50;0.50;;;;;;;8.67;47.52;97970.12;29395;203;63004;-58
2022/03/27 00:09:25;;;;;;;0.60;0.60;;;;;;;8.67;47.57;97969.31;29395;222;63008;-58
2022/03/27 00:09:56;;;;;;;0.50;0.50;;;;;;;8.68;47.26;97970.94;29395;208;63004;-58
2022/03/27 00:10:27;;;;;;;0.50;0.50;;;;;;;8.69;47.33;97976.09;29395;385;63009;-58
2022/03/27 00:11:48;;;;;;;0.50;0.50;;;;;;;8.67;46.96;97970.12;29394;216;64009;-58
2022/03/27 00:12:20;;;;;;;0.50;0.50;;;;;;;8.66;47.00;97971.19;29394;224;64005;-58
2022/03/27 00:12:51;;;;;;;0.60;0.60;;;;;;;8.65;47.19;97972.28;29395;240;63009;-57
2022/03/27 00:13:22;;;;;;;0.60;0.60;;;;;;;8.65;46.98;97966.87;29395;209;63005;-59
2022/03/27 00:14:02;;;;;;;0.50;0.50;;;;;;;8.64;47.42;97978.78;29395;233;63017;-58
2022/03/27 00:14:33;;;;;;;0.50;0.50;;;;;;;8.65;46.93;97968.78;29395;213;63004;-58
2022/03/27 00:15:06;;;;;;;0.50;0.50;;;;;;;8.64;47.38;97972.53;29395;218;63009;-59
2022/03/27 00:15:39;;;;;;;0.50;0.50;;;;;;;8.63;47.13;97974.44;29395;206;63004;-58
2022/03/27 00:16:16;;;;;;;0.50;0.50;;;;;;;8.61;47.14;97971.16;29394;197;64009;-58
2022/03/27 00:16:47;;;;;;;0.50;0.50;;;;;;;8.60;47.15;97966.81;29395;259;63004;-58
2022/03/27 00:17:21;;;;;;;0.60;0.60;;;;;;;8.60;47.23;97968.72;29395;214;63008;-58
2022/03/27 00:17:52;;;;;;;0.60;0.60;;;;;;;8.59;47.25;97967.06;29395;205;63019;-57
2022/03/27 00:18:27;;;;;;;0.60;0.60;;;;;;;8.58;47.25;97971.66;29395;326;63009;-58
2022/03/27 00:19:00;;;;;;;0.60;0.60;;;;;;;8.57;47.29;97970.03;29395;240;63012;-59
2022/03/27 00:19:31;;;;;;;0.50;0.50;;;;;;;8.58;47.34;97970.84;29395;293;63009;-58
2022/03/27 00:20:14;;;;;;;0.50;0.50;;;;;;;8.57;47.29;97970.03;29395;226;63005;-58
2022/03/27 00:20:47;;;;;;;0.60;0.60;;;;;;;8.56;47.35;97968.41;29395;202;63009;-60
2022/03/27 00:21:22;;;;;;;0.60;0.60;;;;;;;8.56;47.22;97962.97;29394;196;64005;-57
2022/03/27 00:21:53;;;;;;;3.22;1.77;;;;;;;8.55;47.38;97965.94;29394;336;64004;-58
2022/03/27 00:22:27;;;;;;;0.60;0.60;;;;;;;8.52;47.23;97961.84;29395;227;63004;-59
2022/03/27 00:22:58;;;;;;;0.50;0.50;;;;;;;8.53;47.33;97962.69;29395;231;63009;-59
2022/03/27 00:23:29;;;;;;;0.50;0.50;;;;;;;8.51;47.47;97964.81;29394;224;64004;-58
2022/03/27 00:24:01;;;;;;;0.60;0.60;;;;;;;8.51;47.50;97960.22;29395;226;63009;-61
2022/03/27 00:24:32;;;;;;;0.50;0.50;;;;;;;8.51;47.37;97960.22;29395;203;63017;-59
2022/03/27 00:25:08;;;;;;;0.50;0.50;;;;;;;8.50;47.39;97969.41;29395;237;63008;-58
2022/03/27 00:25:39;;;;;;;0.50;0.50;;;;;;;8.51;47.23;97960.22;29393;228;64005;-60
2022/03/27 00:26:11;;;;;;;0.50;0.50;;;;;;;8.50;47.37;97958.59;29395;373;63009;-61
2022/03/27 00:26:42;;;;;;;0.60;0.60;;;;;;;8.50;47.19;97964.00;29395;208;63005;-58
2022/03/27 00:27:13;;;;;;;0.50;0.50;;;;;;;8.50;47.54;97958.59;29395;309;63009;-58
2022/03/27 00:27:44;;;;;;;0.50;0.50;;;;;;;8.51;47.09;97960.22;29395;200;63005;-58
2022/03/27 00:28:15;;;;;;;0.50;0.50;;;;;;;8.51;47.04;97960.22;29395;212;63009;-58
2022/03/27 00:28:48;;;;;;;0.50;0.50;;;;;;;8.51;46.97;97962.94;29394;271;64017;-58
2022/03/27 00:29:22;;;;;;;0.50;0.50;;;;;;;8.50;47.17;97953.19;29395;292;63009;-58
2022/03/27 00:29:53;;;;;;;0.60;0.60;;;;;;;8.50;46.82;97963.19;29395;202;63004;-58
2022/03/27 00:30:24;;;;;;;0.50;0.50;;;;;;;8.49;47.24;97962.34;29395;223;63009;-58
2022/03/27 00:30:55;;;;;;;0.50;0.50;;;;;;;8.48;46.90;97955.31;29395;254;63006;-58
2022/03/27 00:31:27;;;;;;;0.50;0.50;;;;;;;8.48;47.23;97958.00;29373;205;63008;-59
2022/03/27 00:31:59;;;;;;;0.60;0.60;;;;;;;8.48;46.90;97960.72;29395;218;63004;-58
2022/03/27 00:32:30;;;;;;;0.50;0.50;;;;;;;8.48;46.88;97957.19;29395;211;63008;-57
2022/03/27 00:33:01;;;;;;;0.60;0.60;;;;;;;8.45;47.07;97955.81;29395;221;63005;-58
2022/03/27 00:33:33;;;;;;;0.50;0.50;;;;;;;8.45;46.84;97963.94;29394;197;64009;-58
2022/03/27 00:34:05;;;;;;;0.50;0.50;;;;;;;8.44;46.92;97962.28;29395;215;63005;-59
2022/03/27 00:34:36;;;;;;;0.50;0.50;;;;;;;8.43;47.00;97963.38;29395;237;63009;-58
2022/03/27 00:35:08;;;;;;;0.50;0.50;;;;;;;8.42;47.05;97961.72;29395;203;63009;-57
2022/03/27 00:35:39;;;;;;;0.50;0.50;;;;;;;8.41;47.35;97960.09;29395;203;63009;-59
2022/03/27 00:36:13;;;;;;;0.50;0.50;;;;;;;8.39;47.12;97960.34;29395;261;63009;-58
2022/03/27 00:36:45;;;;;;;0.50;0.50;;;;;;;8.38;47.47;97958.72;29395;223;63009;-58
2022/03/27 00:37:18;;;;;;;0.50;0.50;;;;;;;8.39;47.25;97956.81;29395;226;63004;-58
2022/03/27 00:37:51;;;;;;;0.50;0.50;;;;;;;8.37;47.20;97953.56;29395;221;63009;-58
2022/03/27 00:38:25;;;;;;;0.50;0.50;;;;;;;8.36;47.19;97951.91;29395;211;63004;-58
2022/03/27 00:38:57;;;;;;;0.50;0.50;;;;;;;8.37;47.44;97958.97;29394;259;64008;-58
2022/03/27 00:39:28;;;;;;;0.50;0.50;;;;;;;8.36;47.24;97957.31;29395;206;63005;-58
2022/03/27 00:39:59;;;;;;;0.50;0.50;;;;;;;8.35;47.54;97955.69;29395;214;63009;-57
2022/03/27 00:40:30;;;;;;;0.50;0.50;;;;;;;8.34;47.29;97954.06;29395;231;63005;-58
2022/03/27 00:41:01;;;;;;;0.50;0.50;;;;;;;8.34;47.52;97954.06;29395;238;63009;-58
2022/03/27 00:41:34;;;;;;;0.50;0.50;;;;;;;8.32;47.26;97945.34;29395;200;63005;-58
2022/03/27 00:42:07;;;;;;;0.60;0.60;;;;;;;8.32;47.60;97957.00;29395;290;63009;-58
2022/03/27 00:42:38;;;;;;;0.50;0.50;;;;;;;8.32;47.45;97956.16;29395;207;63005;-58
2022/03/27 00:43:11;;;;;;;0.50;0.50;;;;;;;8.31;47.74;97951.84;29395;228;63009;-58
2022/03/27 00:43:43;;;;;;;0.50;0.50;;;;;;;8.30;47.83;97959.16;29394;197;64004;-58
2022/03/27 00:44:15;;;;;;;0.50;0.50;;;;;;;8.30;47.97;97947.50;29395;204;63009;-57
2022/03/27 00:44:47;;;;;;;0.50;0.50;;;;;;;8.30;47.86;97948.31;29395;207;63004;-58
2022/03/27 00:45:18;;;;;;;0.50;0.50;;;;;;;8.30;48.01;97947.50;29394;215;64009;-58
2022/03/27 00:45:51;;;;;;;0.60;0.60;;;;;;;8.29;47.90;97956.69;29395;283;63004;-58
2022/03/27 00:46:22;;;;;;;0.50;0.50;;;;;;;8.29;47.69;97945.88;29394;211;64008;-58
2022/03/27 00:46:53;;;;;;;0.52;0.52;;;;;;;8.29;47.72;97954.81;29395;219;63004;-58
2022/03/27 00:47:24;;;;;;;0.57;0.57;;;;;;;8.29;47.53;97948.59;29395;256;63009;-59
2022/03/27 00:47:56;;;;;;;0.50;0.50;;;;;;;8.29;47.54;97949.41;29395;240;63005;-59
2022/03/27 00:48:27;;;;;;;0.50;0.50;;;;;;;8.29;47.79;97954.00;29395;237;63009;-58
2022/03/27 00:48:58;;;;;;;0.60;0.60;;;;;;;8.28;47.83;97944.25;29394;225;64005;-58
2022/03/27 00:49:29;;;;;;;0.50;0.50;;;;;;;8.27;47.59;97950.72;29394;202;64009;-58
2022/03/27 00:50:00;;;;;;;0.50;0.50;;;;;;;8.26;47.91;97946.38;29395;237;63005;-58
2022/03/27 00:50:32;;;;;;;0.50;0.50;;;;;;;8.26;47.69;97952.59;29395;220;63009;-58
2022/03/27 00:51:04;;;;;;;0.60;0.60;;;;;;;8.25;47.90;97950.16;29395;239;63005;-59
2022/03/27 00:51:39;;;;;;;0.50;0.50;;;;;;;8.26;47.68;97946.38;29395;230;63009;-58
2022/03/27 00:52:10;;;;;;;0.50;0.50;;;;;;;8.27;47.65;97948.00;29395;216;63004;-58
2022/03/27 00:52:41;;;;;;;0.50;0.50;;;;;;;8.27;47.83;97950.72;29395;202;63009;-58
2022/03/27 00:53:12;;;;;;;0.50;0.50;;;;;;;8.26;47.43;97941.78;29395;226;63004;-58
2022/03/27 00:53:43;;;;;;;0.50;0.50;;;;;;;8.25;47.75;97945.56;29395;237;63008;-57
2022/03/27 00:54:15;;;;;;;0.50;0.50;;;;;;;8.25;47.65;97947.44;29395;213;63004;-59
2022/03/27 00:54:46;;;;;;;0.60;0.60;;;;;;;8.26;47.56;97946.38;29394;209;64009;-58
2022/03/27 00:55:17;;;;;;;0.50;0.50;;;;;;;8.25;47.73;97952.84;29395;230;63005;-59
2022/03/27 00:55:49;;;;;;;0.50;0.50;;;;;;;8.22;47.65;97939.84;29395;200;63009;-57
2022/03/27 00:56:20;;;;;;;0.50;0.50;;;;;;;8.22;47.91;97953.34;29395;219;63005;-58
2022/03/27 00:56:51;;;;;;;0.50;0.50;;;;;;;8.20;48.09;97952.78;29395;225;63009;-58
2022/03/27 00:57:23;;;;;;;0.50;0.50;;;;;;;8.17;48.06;97942.47;29395;220;63005;-60
2022/03/27 00:57:55;;;;;;;0.50;0.50;;;;;;;8.19;48.22;97951.16;29395;233;63009;-58
2022/03/27 00:58:27;;;;;;;0.50;0.50;;;;;;;8.18;48.02;97947.62;29395;329;63005;-57
2022/03/27 00:58:58;;;;;;;0.50;0.50;;;;;;;8.18;48.07;97952.22;29395;403;63009;-58
2022/03/27 00:59:29;;;;;;;0.50;0.50;;;;;;;8.16;48.21;97951.66;29395;210;63004;-57
2022/03/27 01:00:00;;;;;;;0.50;0.50;;;;;;;8.16;48.16;97952.47;29394;252;64009;-57
2022/03/27 01:01:21;;;;;;;0.50;0.50;;;;;;;8.14;48.43;97951.91;29395;221;63004;-58
2022/03/27 01:01:52;;;;;;;0.50;0.50;;;;;;;8.14;48.54;97953.78;29395;236;63008;-59
2022/03/27 01:02:27;;;;;;;0.50;0.50;;;;;;;8.13;48.37;97947.56;29395;248;63005;-59
2022/03/27 01:02:58;;;;;;;0.50;0.50;;;;;;;8.12;48.71;97951.34;29395;232;63026;-58
2022/03/27 01:03:31;;;;;;;0.60;0.60;;;;;;;8.12;48.60;97955.91;29395;226;63005;-58
2022/03/27 01:04:04;;;;;;;0.50;0.50;;;;;;;8.12;48.58;97950.50;29395;218;63009;-58
2022/03/27 01:04:43;;;;;;;0.50;0.50;;;;;;;8.11;48.32;97954.28;29395;202;63005;-58
2022/03/27 01:05:15;;;;;;;0.50;0.50;;;;;;;8.11;48.21;97951.59;29394;324;64009;-58
2022/03/27 01:05:48;;;;;;;0.60;0.60;;;;;;;8.10;48.22;97952.66;29395;198;63005;-59
2022/03/27 01:06:35;;;;;;;0.50;0.50;;;;;;;8.08;48.31;97953.72;29394;199;64009;-58
2022/03/27 01:07:06;;;;;;;0.60;0.60;;;;;;;8.08;48.45;97955.59;29394;210;64004;-58
2022/03/27 01:07:40;;;;;;;0.60;0.60;;;;;;;8.06;48.42;97955.84;29395;227;63009;-59
2022/03/27 01:08:13;;;;;;;0.60;0.60;;;;;;;8.04;48.52;97949.06;29395;205;63004;-58
2022/03/27 01:09:41;;;;;;;0.50;0.50;;;;;;;8.01;48.93;97955.78;29395;219;63004;-59
2022/03/27 01:10:12;;;;;;;0.60;0.60;;;;;;;8.00;49.27;97953.31;29395;212;63009;-58
2022/03/27 01:10:44;;;;;;;0.60;0.60;;;;;;;7.98;49.40;97950.87;29395;202;63005;-60
2022/03/27 01:11:21;;;;;;;0.50;0.50;;;;;;;7.95;50.14;97946.00;29395;283;63009;-58
2022/03/27 01:11:56;;;;;;;0.50;0.50;;;;;;;7.94;49.86;97960.56;29395;233;63005;-58
2022/03/27 01:12:41;;;;;;;0.50;0.50;;;;;;;7.92;49.71;97951.91;29394;203;64009;-58
2022/03/27 01:13:19;;;;;;;0.60;0.60;;;;;;;7.91;49.66;97950.25;29395;231;63005;-57
2022/03/27 01:13:56;;;;;;;0.50;0.50;;;;;;;7.90;49.67;97947.81;29395;217;63009;-59
2022/03/27 01:14:34;;;;;;;0.50;0.50;;;;;;;7.90;49.38;97947.81;29395;229;63004;-60
2022/03/27 01:15:21;;;;;;;0.60;0.60;;;;;;;7.87;49.67;97943.72;29395;202;63009;-58
2022/03/27 01:15:54;;;;;;;0.60;0.60;;;;;;;7.87;49.84;97943.72;29395;196;63015;-58
2022/03/27 01:16:47;;;;;;;0.50;0.50;;;;;;;7.87;49.69;97943.72;29395;221;63008;-58
2022/03/27 01:17:24;;;;;;;0.52;0.52;;;;;;;7.87;49.40;97942.91;29394;205;64005;-58
2022/03/27 01:17:56;;;;;;;0.50;0.50;;;;;;;7.88;49.35;97945.34;29395;200;63009;-58
2022/03/27 01:18:27;;;;;;;0.50;0.50;;;;;;;7.87;48.93;97949.13;29395;198;63005;-58
2022/03/27 01:19:00;;;;;;;0.60;0.60;;;;;;;7.86;48.76;97942.09;29395;197;63009;-59
2022/03/27 01:19:32;;;;;;;0.50;0.50;;;;;;;7.86;49.50;97952.91;29395;239;63005;-58
2022/03/27 01:20:04;;;;;;;0.60;0.60;;;;;;;7.83;49.56;97942.59;29395;211;63009;-58
2022/03/27 01:20:40;;;;;;;0.50;0.50;;;;;;;7.83;49.70;97947.16;29395;213;63005;-58
2022/03/27 01:21:14;;;;;;;0.60;0.60;;;;;;;7.81;51.03;97950.13;29395;221;63009;-58
2022/03/27 01:21:46;;;;;;;0.50;0.50;;;;;;;7.76;51.85;97947.34;29395;219;63004;-58
2022/03/27 01:22:19;;;;;;;0.60;0.60;;;;;;;7.68;51.83;97951.28;29394;234;64009;-58
2022/03/27 01:22:50;;;;;;;0.50;0.50;;;;;;;7.65;50.82;97943.66;29395;204;63004;-58
2022/03/27 01:23:24;;;;;;;0.50;0.50;;;;;;;7.64;50.91;97949.31;29395;196;63009;-58
2022/03/27 01:23:56;;;;;;;0.50;0.50;;;;;;;7.64;50.49;97949.31;29394;199;64004;-57
2022/03/27 01:24:27;;;;;;;0.50;0.50;;;;;;;7.65;50.74;97945.56;29395;196;63008;-58
2022/03/27 01:24:58;;;;;;;0.50;0.50;;;;;;;7.64;50.58;97942.03;29394;229;64005;-59
2022/03/27 01:25:30;;;;;;;0.50;0.50;;;;;;;7.65;50.86;97945.56;29395;233;63009;-58
2022/03/27 01:26:05;;;;;;;0.50;0.50;;;;;;;7.64;50.90;97942.03;29395;209;63005;-58
2022/03/27 01:26:38;;;;;;;0.60;0.60;;;;;;;7.65;50.80;97950.94;29395;197;63009;-58
2022/03/27 01:27:13;;;;;;;0.60;0.60;;;;;;;7.66;50.70;97936.37;29395;203;63005;-58
2022/03/27 01:27:44;;;;;;;0.60;0.60;;;;;;;7.65;50.63;97945.56;29395;221;63009;-58
2022/03/27 01:28:16;;;;;;;0.50;0.50;;;;;;;7.64;50.73;97943.91;29395;223;63004;-58
2022/03/27 01:28:47;;;;;;;0.60;0.60;;;;;;;7.65;50.96;97945.56;29395;240;63016;-59
2022/03/27 01:29:19;;;;;;;0.50;0.50;;;;;;;7.62;50.81;97946.06;29394;202;64004;-58
2022/03/27 01:29:50;;;;;;;0.52;0.52;;;;;;;7.60;52.06;97949.03;29395;218;63009;-58
2022/03/27 01:30:21;;;;;;;0.60;0.60;;;;;;;7.53;52.36;97947.56;29394;197;64004;-58
2022/03/27 01:30:53;;;;;;;0.52;0.52;;;;;;;7.51;51.77;97944.28;29395;239;63008;-58
2022/03/27 01:31:24;;;;;;;0.50;0.50;;;;;;;7.49;51.58;97946.41;29395;210;63004;-57
2022/03/27 01:31:57;;;;;;;0.50;0.50;;;;;;;7.47;52.10;97948.53;29395;243;63008;-58
2022/03/27 01:32:28;;;;;;;0.57;0.57;;;;;;;7.46;51.97;97950.41;29395;202;63005;-58
2022/03/27 01:32:59;;;;;;;2.80;2.70;;;;;;;7.45;51.76;97946.06;29395;206;63009;-57
2022/03/27 01:33:31;;;;;;;0.60;0.60;;;;;;;7.44;51.52;97949.03;29395;230;63005;-57
2022/03/27 01:34:03;;;;;;;0.50;0.50;;;;;;;7.43;51.60;97945.50;29395;227;63009;-58
2022/03/27 01:34:35;;;;;;;0.50;0.50;;;;;;;7.42;51.95;97951.16;29395;296;63005;-58
2022/03/27 01:35:10;;;;;;;0.50;0.50;;;;;;;7.38;52.12;97946.25;29394;228;64026;-57
2022/03/27 01:35:41;;;;;;;0.50;0.50;;;;;;;7.34;52.21;97947.78;29394;227;64004;-58
2022/03/27 01:36:21;;;;;;;0.60;0.60;;;;;;;7.33;52.15;97948.03;29395;231;63019;-57
2022/03/27 01:36:53;;;;;;;0.88;0.88;;;;;;;7.33;52.16;97943.47;29479;351;125009;-58
2022/03/27 01:37:24;;;;;;;0.60;0.60;;;;;;;7.33;52.14;97943.47;29395;221;63004;-58
2022/03/27 01:37:55;;;;;;;0.60;0.60;;;;;;;7.33;52.34;97948.03;29395;283;63000;-58
2022/03/27 01:38:28;;;;;;;0.50;0.50;;;;;;;7.28;52.98;97948.78;29395;211;63004;-58
2022/03/27 01:38:59;;;;;;;0.50;0.50;;;;;;;7.25;52.12;97946.59;29395;314;63001;-58
2022/03/27 01:39:30;;;;;;;3.47;3.37;;;;;;;7.23;52.03;97943.31;29373;240;63005;-58
2022/03/27 01:40:01;;;;;;;0.60;0.60;;;;;;;7.24;51.95;97944.97;29395;275;63001;-58
2022/03/27 01:40:33;;;;;;;0.50;0.50;;;;;;;7.25;51.94;97943.06;29394;236;64009;-58
2022/03/27 01:41:04;;;;;;;0.50;0.50;;;;;;;7.22;53.17;97946.25;29395;229;63005;-58
2022/03/27 01:41:36;;;;;;;0.50;0.50;;;;;;;7.20;52.25;97943.00;29395;217;63009;-58
2022/03/27 01:42:08;;;;;;;0.50;0.50;;;;;;;7.19;52.06;97938.66;29395;234;63005;-59
2022/03/27 01:42:39;;;;;;;0.50;0.50;;;;;;;7.17;53.41;97944.28;29395;202;63009;-59
2022/03/27 01:43:10;;;;;;;0.60;0.60;;;;;;;7.13;52.63;97937.75;29395;322;63004;-58
2022/03/27 01:43:42;;;;;;;0.60;0.60;;;;;;;7.11;52.62;97945.28;29373;275;63009;-59
2022/03/27 01:44:16;;;;;;;0.50;0.50;;;;;;;7.11;53.02;97947.97;29395;236;63004;-58
2022/03/27 01:44:47;;;;;;;0.60;0.60;;;;;;;7.11;52.69;97942.56;29394;218;64009;-57
2022/03/27 01:45:19;;;;;;;0.55;0.55;;;;;;;7.11;52.56;97945.28;29395;202;63004;-58
2022/03/27 01:45:50;;;;;;;0.50;0.50;;;;;;;7.09;52.25;97935.78;29373;198;63008;-58
2022/03/27 01:46:22;;;;;;;0.50;0.50;;;;;;;7.07;52.51;97939.53;29395;214;63004;-58
2022/03/27 01:46:55;;;;;;;0.50;0.50;;;;;;;7.06;52.46;97942.47;29395;223;63009;-58
2022/03/27 01:47:26;;;;;;;0.50;0.50;;;;;;;7.05;52.38;97935.44;29395;227;63005;-58
2022/03/27 01:47:58;;;;;;;0.60;0.60;;;;;;;7.04;52.26;97939.22;29395;216;63009;-58
2022/03/27 01:48:29;;;;;;;0.60;0.60;;;;;;;7.04;52.43;97939.22;29395;209;63005;-57
2022/03/27 01:49:02;;;;;;;0.50;0.50;;;;;;;7.04;52.48;97939.22;29373;259;63009;-58
2022/03/27 01:49:34;;;;;;;0.50;0.50;;;;;;;7.01;52.65;97935.13;29371;237;64005;-57
2022/03/27 01:50:07;;;;;;;0.60;0.60;;;;;;;7.02;52.63;97941.34;29395;223;63009;-58
2022/03/27 01:50:38;;;;;;;0.60;0.60;;;;;;;7.00;52.57;97938.06;29373;263;63005;-59
2022/03/27 01:51:09;;;;;;;0.50;0.50;;;;;;;7.00;52.62;97938.06;29373;250;63009;-58
2022/03/27 01:51:44;;;;;;;0.50;0.50;;;;;;;6.99;52.30;97937.25;29373;266;63004;-58
2022/03/27 01:52:15;;;;;;;0.50;0.50;;;;;;;6.98;52.32;97929.38;29373;202;63009;-58
2022/03/27 01:52:48;;;;;;;0.50;0.50;;;;;;;7.01;52.63;97937.00;29371;239;64004;-58
2022/03/27 01:53:19;;;;;;;0.50;0.50;;;;;;;6.98;52.69;97935.59;29395;237;63008;-59
2022/03/27 01:53:50;;;;;;;0.50;0.50;;;;;;;6.98;52.69;97932.09;29395;322;63004;-58
2022/03/27 01:54:22;;;;;;;0.50;0.50;;;;;;;6.97;52.87;97935.84;29373;234;63009;-58
2022/03/27 01:54:54;;;;;;;0.50;0.50;;;;;;;6.96;53.93;97939.59;29395;203;63005;-59
2022/03/27 01:55:26;;;;;;;0.50;0.50;;;;;;;6.92;53.84;97933.91;29373;269;63009;-58
2022/03/27 01:55:57;;;;;;;0.50;0.50;;;;;;;6.89;53.25;97934.38;29395;241;63005;-57
2022/03/27 01:56:30;;;;;;;0.50;0.50;;;;;;;6.88;53.35;97940.03;29395;249;63009;-59
2022/03/27 01:57:05;;;;;;;9.35;8.98;;;;;;;6.87;52.97;97938.41;29368;332;66005;-58
2022/03/27 01:57:39;;;;;;;0.60;0.60;;;;;;;6.86;52.98;97945.66;29373;281;63009;-58
2022/03/27 01:58:10;;;;;;;0.60;0.60;;;;;;;6.85;53.30;97938.62;29373;339;63005;-58
2022/03/27 01:58:42;;;;;;;0.50;0.50;;;;;;;6.85;52.88;97935.94;29373;227;63009;-58
2022/03/27 01:59:14;;;;;;;0.50;0.50;;;;;;;6.86;53.10;97936.75;29373;283;63004;-58
2022/03/27 01:59:45;;;;;;;0.70;0.70;;;;;;;6.87;52.78;97933.00;29371;218;64009;-59
2022/03/27 02:00:17;;;;;;;0.60;0.60;;;;;;;6.86;52.75;97931.34;29373;377;63004;-58
2022/03/27 02:00:49;;;;;;;2.87;2.78;;;;;;;6.87;52.71;97938.41;29373;266;63021;-59
2022/03/27 02:01:21;;;;;;;0.50;0.50;;;;;;;6.87;52.87;97933.81;29373;211;63004;-58
2022/03/27 02:01:55;;;;;;;0.60;0.60;;;;;;;6.87;52.90;97933.00;29373;200;63009;-57
2022/03/27 02:02:26;;;;;;;0.60;0.60;;;;;;;6.85;52.56;97930.53;29395;248;63005;-58
2022/03/27 02:02:57;;;;;;;0.50;0.50;;;;;;;6.84;52.68;97934.31;29373;272;63009;-58
2022/03/27 02:03:28;;;;;;;0.60;0.60;;;;;;;6.84;53.06;97933.47;29373;241;63005;-57
2022/03/27 02:04:00;;;;;;;0.60;0.60;;;;;;;6.82;52.86;97936.41;29372;223;63009;-58
2022/03/27 02:04:31;;;;;;;0.55;0.55;;;;;;;6.83;52.90;97937.25;29373;203;63005;-60
2022/03/27 02:05:04;;;;;;;0.50;0.50;;;;;;;6.83;53.12;97929.16;29371;275;64009;-59
2022/03/27 02:05:35;;;;;;;0.60;0.60;;;;;;;6.80;54.18;97937.72;29373;223;63005;-57
2022/03/27 02:06:06;;;;;;;0.57;0.57;;;;;;;6.77;53.48;97939.03;29373;212;63009;-58
2022/03/27 02:06:39;;;;;;;0.57;0.57;;;;;;;6.76;53.47;97936.56;29373;293;63004;-59
2022/03/27 02:07:10;;;;;;;0.50;0.50;;;;;;;6.77;53.52;97935.50;29395;233;63009;-57
2022/03/27 02:07:45;;;;;;;0.60;0.60;;;;;;;6.77;53.49;97932.81;29373;235;63004;-58
2022/03/27 02:08:16;;;;;;;0.50;0.50;;;;;;;6.73;53.57;97932.47;29373;238;63009;-58
2022/03/27 02:08:47;;;;;;;0.60;0.60;;;;;;;6.73;53.42;97933.28;29395;277;63004;-59
2022/03/27 02:09:18;;;;;;;0.50;0.50;;;;;;;6.72;53.43;97931.66;29395;275;63009;-58
2022/03/27 02:09:50;;;;;;;0.50;0.50;;;;;;;6.73;54.13;97944.09;29395;213;63005;-58
2022/03/27 02:10:21;;;;;;;0.50;0.50;;;;;;;6.70;53.65;97933.78;29394;271;64009;-58
2022/03/27 02:10:52;;;;;;;0.60;0.60;;;;;;;6.70;54.03;97936.47;29395;220;63005;-58
2022/03/27 02:11:23;;;;;;;0.50;0.50;;;;;;;6.70;53.70;97933.78;29395;203;63009;-58
2022/03/27 02:11:55;;;;;;;0.60;0.60;;;;;;;6.70;53.64;97933.78;29395;359;63005;-58
2022/03/27 02:12:26;;;;;;;0.50;0.50;;;;;;;6.71;53.58;97938.13;29373;241;63009;-59
2022/03/27 02:12:57;;;;;;;0.50;0.50;;;;;;;6.71;54.05;97931.91;29373;229;63005;-58
2022/03/27 02:13:29;;;;;;;0.60;0.60;;;;;;;6.72;53.55;97931.66;29373;279;63009;-59
2022/03/27 02:14:01;;;;;;;0.50;0.50;;;;;;;6.73;53.58;97932.47;29373;362;63004;-58
2022/03/27 02:14:32;;;;;;;0.60;0.60;;;;;;;6.75;53.42;97934.94;29373;361;63009;-58
2022/03/27 02:15:08;;;;;;;0.50;0.50;;;;;;;6.75;53.42;97929.53;29373;309;63004;-58
2022/03/27 02:15:39;;;;;;;0.50;0.50;;;;;;;6.77;53.49;97927.41;29371;231;64009;-58
2022/03/27 02:16:11;;;;;;;0.60;0.60;;;;;;;6.79;53.36;97925.28;29373;358;63004;-58
2022/03/27 02:16:46;;;;;;;0.50;0.50;;;;;;;6.79;53.02;97925.28;29373;299;63009;-59
2022/03/27 02:17:20;;;;;;;0.62;0.62;;;;;;;6.81;53.02;97923.19;29373;308;63007;-58
2022/03/27 02:17:52;;;;;;;1.12;1.12;;;;;;;6.82;52.91;97924.81;29373;307;63009;-58
2022/03/27 02:18:25;;;;;;;2.15;2.05;;;;;;;6.83;52.53;97926.44;29373;257;63005;-59
2022/03/27 02:18:57;;;;;;;0.50;0.50;;;;;;;6.84;52.71;97928.09;29373;197;63009;-58
2022/03/27 02:19:28;;;;;;;0.60;0.60;;;;;;;6.86;52.70;97931.34;29373;236;63005;-58
2022/03/27 02:20:00;;;;;;;0.50;0.50;;;;;;;6.87;52.28;97920.31;29373;316;63009;-58
2022/03/27 02:20:31;;;;;;;0.60;0.60;;;;;;;6.89;52.46;97920.09;29373;335;63004;-58
2022/03/27 02:21:03;;;;;;;0.60;0.60;;;;;;;6.89;52.21;97920.09;29371;320;64009;-58
2022/03/27 02:21:34;;;;;;;0.52;0.52;;;;;;;6.90;52.47;97922.53;29373;302;63004;-59
2022/03/27 02:22:06;;;;;;;0.60;0.60;;;;;;;6.92;52.33;97927.69;29373;224;63009;-58
2022/03/27 02:22:38;;;;;;;0.60;0.60;;;;;;;6.92;52.34;97925.00;29373;251;63004;-59
2022/03/27 02:23:12;;;;;;;0.50;0.50;;;;;;;6.93;52.44;97921.25;29373;318;63008;-58
2022/03/27 02:23:44;;;;;;;0.60;0.60;;;;;;;6.94;52.16;97933.63;29373;330;63004;-58
2022/03/27 02:24:15;;;;;;;0.60;0.60;;;;;;;6.94;52.19;97922.84;29373;328;63007;-58
2022/03/27 02:24:46;;;;;;;0.50;0.50;;;;;;;6.94;52.19;97920.97;29371;250;64005;-59
2022/03/27 02:25:18;;;;;;;0.60;0.60;;;;;;;6.96;52.22;97920.72;29373;223;63009;-59
2022/03/27 02:25:51;;;;;;;0.57;0.57;;;;;;;6.93;53.75;97926.63;29373;218;63005;-58
2022/03/27 02:26:22;;;;;;;0.50;0.50;;;;;;;6.87;54.10;97927.59;29373;246;63009;-59
2022/03/27 02:26:53;;;;;;;0.50;0.50;;;;;;;6.80;54.34;97937.72;29373;302;63005;-58
2022/03/27 02:27:24;;;;;;;0.60;0.60;;;;;;;6.73;53.83;97922.50;29373;358;63009;-58
2022/03/27 02:27:57;;;;;;;0.60;0.60;;;;;;;6.73;53.64;97927.91;29373;254;63004;-60
2022/03/27 02:28:28;;;;;;;0.60;0.60;;;;;;;6.73;53.26;97927.91;29373;353;63009;-58
2022/03/27 02:29:00;;;;;;;0.60;0.60;;;;;;;6.74;53.60;97923.31;29373;308;63004;-58
2022/03/27 02:29:32;;;;;;;0.60;0.60;;;;;;;6.73;53.86;97933.28;29373;318;63009;-58
2022/03/27 02:30:07;;;;;;;0.60;0.60;;;;;;;6.73;53.23;97917.12;29371;206;64004;-58
2022/03/27 02:30:38;;;;;;;0.55;0.55;;;;;;;6.75;53.22;97926.84;29373;325;63008;-59
2022/03/27 02:31:09;;;;;;;0.60;0.60;;;;;;;6.76;53.55;97931.19;29373;368;63005;-59
2022/03/27 02:31:41;;;;;;;0.60;0.60;;;;;;;6.75;53.49;97924.16;29371;342;64009;-58
2022/03/27 02:32:14;;;;;;;0.60;0.60;;;;;;;6.75;53.20;97924.16;29371;482;64005;-58
2022/03/27 02:32:47;;;;;;;0.60;0.60;;;;;;;6.76;53.41;97920.37;29373;323;63009;-59
2022/03/27 02:33:19;;;;;;;0.60;0.60;;;;;;;6.78;53.24;97923.66;29373;250;63005;-58
2022/03/27 02:33:50;;;;;;;0.60;0.60;;;;;;;6.78;53.38;97920.97;29371;203;64009;-59
2022/03/27 02:34:21;;;;;;;0.60;0.60;;;;;;;6.79;53.17;97925.28;29373;323;63005;-58
2022/03/27 02:34:52;;;;;;;0.60;0.60;;;;;;;6.79;53.63;97930.69;29373;216;63009;-58
2022/03/27 02:35:24;;;;;;;0.75;0.75;;;;;;;6.79;53.23;97930.69;29373;242;63004;-59
2022/03/27 02:35:56;;;;;;;0.50;0.50;;;;;;;6.79;53.33;97925.28;29394;214;64009;-58
2022/03/27 02:36:27;;;;;;;0.50;0.50;;;;;;;6.79;53.27;97925.28;29371;329;64004;-59
2022/03/27 02:36:58;;;;;;;0.60;0.60;;;;;;;6.79;53.24;97928.81;29373;283;63009;-58
2022/03/27 02:37:29;;;;;;;0.60;0.60;;;;;;;6.80;53.31;97932.31;29373;341;63004;-58
2022/03/27 02:38:04;;;;;;;0.60;0.60;;;;;;;6.79;53.21;97926.13;29373;295;63008;-59
2022/03/27 02:38:37;;;;;;;0.50;0.50;;;;;;;6.81;53.11;97928.56;29373;372;63005;-58
2022/03/27 02:39:09;;;;;;;0.50;0.50;;;;;;;6.81;52.84;97925.88;29371;263;64009;-58